sensor_id;sensor_type;location;lat;lon;timestamp;P1;durP1;ratioP1;P2;durP2;ratioP2
23322;SDS011;11833;52.554;13.554;2024-03-17T00:01:49;13.80;;;2.87;;
23322;SDS011;11833;52.554;13.554;2024-03-17T00:04:15;17.98;;;3.88;;
23322;SDS011;11833;52.554;13.554;2024-03-17T00:06:41;11.50;;;2.83;;
23322;SDS011;11833;52.554;13.554;2024-03-17T00:09:06;13.27;;;2.60;;
23322;SDS011;11833;52.554;13.554;2024-03-17T00:11:34;13.60;;;3.45;;
23322;SDS011;11833;52.554;13.554;2024-03-17T00:14:02;15.48;;;3.38;;
23322;SDS011;11833;52.554;13.554;2024-03-17T00:16:29;12.43;;;3.17;;
23322;SDS011;11833;52.554;13.554;2024-03-17T00:18:56;7.55;;;2.67;;
23322;SDS011;11833;52.554;13.554;2024-03-17T00:21:22;11.20;;;2.50;;
23322;SDS011;11833;52.554;13.554;2024-03-17T00:23:48;9.43;;;2.77;;
23322;SDS011;11833;52.554;13.554;2024-03-17T00:26:16;13.45;;;2.63;;
23322;SDS011;11833;52.554;13.554;2024-03-17T00:28:44;12.45;;;3.08;;
23322;SDS011;11833;52.554;13.554;2024-03-17T00:31:13;14.97;;;3.43;;
23322;SDS011;11833;52.554;13.554;2024-03-17T00:33:40;13.23;;;2.90;;
23322;SDS011;11833;52.554;13.554;2024-03-17T00:36:06;10.05;;;2.80;;
23322;SDS011;11833;52.554;13.554;2024-03-17T00:38:32;12.55;;;3.15;;
23322;SDS011;11833;52.554;13.554;2024-03-17T00:40:58;13.20;;;3.00;;
23322;SDS011;11833;52.554;13.554;2024-03-17T00:43:24;17.10;;;4.28;;
23322;SDS011;11833;52.554;13.554;2024-03-17T00:45:53;14.80;;;3.05;;
23322;SDS011;11833;52.554;13.554;2024-03-17T00:48:18;14.60;;;3.63;;
23322;SDS011;11833;52.554;13.554;2024-03-17T00:50:45;8.70;;;2.22;;
23322;SDS011;11833;52.554;13.554;2024-03-17T00:53:11;13.05;;;3.28;;
23322;SDS011;11833;52.554;13.554;2024-03-17T00:55:37;12.20;;;2.90;;
23322;SDS011;11833;52.554;13.554;2024-03-17T00:58:02;14.63;;;3.50;;
23322;SDS011;11833;52.554;13.554;2024-03-17T01:00:29;11.05;;;2.67;;
23322;SDS011;11833;52.554;13.554;2024-03-17T01:02:55;10.07;;;2.90;;
23322;SDS011;11833;52.554;13.554;2024-03-17T01:05:21;14.30;;;2.97;;
23322;SDS011;11833;52.554;13.554;2024-03-17T01:07:47;12.88;;;2.83;;
23322;SDS011;11833;52.554;13.554;2024-03-17T01:10:14;10.65;;;2.28;;
23322;SDS011;11833;52.554;13.554;2024-03-17T01:12:40;13.43;;;2.35;;
23322;SDS011;11833;52.554;13.554;2024-03-17T01:15:06;15.05;;;3.13;;
23322;SDS011;11833;52.554;13.554;2024-03-17T01:17:33;13.95;;;2.85;;
23322;SDS011;11833;52.554;13.554;2024-03-17T01:19:59;12.93;;;2.97;;
23322;SDS011;11833;52.554;13.554;2024-03-17T01:22:24;12.70;;;3.30;;
23322;SDS011;11833;52.554;13.554;2024-03-17T01:24:50;9.98;;;2.67;;
23322;SDS011;11833;52.554;13.554;2024-03-17T01:27:16;13.13;;;3.00;;
23322;SDS011;11833;52.554;13.554;2024-03-17T01:29:42;13.07;;;3.10;;
23322;SDS011;11833;52.554;13.554;2024-03-17T01:32:08;14.27;;;3.25;;
23322;SDS011;11833;52.554;13.554;2024-03-17T01:34:35;19.98;;;3.45;;
23322;SDS011;11833;52.554;13.554;2024-03-17T01:37:03;15.67;;;3.53;;
23322;SDS011;11833;52.554;13.554;2024-03-17T01:39:31;13.00;;;3.10;;
23322;SDS011;11833;52.554;13.554;2024-03-17T01:41:57;13.40;;;3.20;;
23322;SDS011;11833;52.554;13.554;2024-03-17T01:44:27;11.13;;;2.42;;
23322;SDS011;11833;52.554;13.554;2024-03-17T01:46:54;13.07;;;2.42;;
23322;SDS011;11833;52.554;13.554;2024-03-17T01:49:21;10.77;;;2.60;;
23322;SDS011;11833;52.554;13.554;2024-03-17T01:51:48;10.98;;;2.78;;
23322;SDS011;11833;52.554;13.554;2024-03-17T01:54:14;12.48;;;2.33;;
23322;SDS011;11833;52.554;13.554;2024-03-17T01:56:43;10.48;;;2.50;;
23322;SDS011;11833;52.554;13.554;2024-03-17T01:59:09;11.85;;;3.25;;
23322;SDS011;11833;52.554;13.554;2024-03-17T02:01:38;12.95;;;2.20;;
23322;SDS011;11833;52.554;13.554;2024-03-17T02:04:04;13.10;;;2.90;;
23322;SDS011;11833;52.554;13.554;2024-03-17T02:06:31;14.10;;;2.30;;
23322;SDS011;11833;52.554;13.554;2024-03-17T02:08:57;11.27;;;2.83;;
23322;SDS011;11833;52.554;13.554;2024-03-17T02:11:24;9.55;;;3.33;;
23322;SDS011;11833;52.554;13.554;2024-03-17T02:13:55;12.40;;;3.33;;
23322;SDS011;11833;52.554;13.554;2024-03-17T02:16:22;12.43;;;2.50;;
23322;SDS011;11833;52.554;13.554;2024-03-17T02:18:48;11.38;;;2.63;;
23322;SDS011;11833;52.554;13.554;2024-03-17T02:21:19;12.85;;;2.22;;
23322;SDS011;11833;52.554;13.554;2024-03-17T02:23:47;11.82;;;2.45;;
23322;SDS011;11833;52.554;13.554;2024-03-17T02:26:13;13.30;;;2.70;;
23322;SDS011;11833;52.554;13.554;2024-03-17T02:28:39;10.82;;;2.80;;
23322;SDS011;11833;52.554;13.554;2024-03-17T02:31:10;12.07;;;2.60;;
23322;SDS011;11833;52.554;13.554;2024-03-17T02:33:37;15.02;;;2.65;;
23322;SDS011;11833;52.554;13.554;2024-03-17T02:36:04;13.20;;;2.30;;
23322;SDS011;11833;52.554;13.554;2024-03-17T02:38:34;11.55;;;2.65;;
23322;SDS011;11833;52.554;13.554;2024-03-17T02:41:18;15.75;;;2.80;;
23322;SDS011;11833;52.554;13.554;2024-03-17T02:43:44;12.25;;;2.33;;
23322;SDS011;11833;52.554;13.554;2024-03-17T02:46:11;9.93;;;2.40;;
23322;SDS011;11833;52.554;13.554;2024-03-17T02:48:38;13.38;;;2.65;;
23322;SDS011;11833;52.554;13.554;2024-03-17T02:51:16;9.20;;;2.08;;
23322;SDS011;11833;52.554;13.554;2024-03-17T02:53:44;10.85;;;2.45;;
23322;SDS011;11833;52.554;13.554;2024-03-17T02:56:14;14.15;;;3.17;;
23322;SDS011;11833;52.554;13.554;2024-03-17T02:58:43;12.23;;;2.70;;
23322;SDS011;11833;52.554;13.554;2024-03-17T03:01:14;11.88;;;2.80;;
23322;SDS011;11833;52.554;13.554;2024-03-17T03:03:40;11.00;;;2.67;;
23322;SDS011;11833;52.554;13.554;2024-03-17T03:06:06;18.88;;;3.05;;
23322;SDS011;11833;52.554;13.554;2024-03-17T03:08:36;12.85;;;2.40;;
23322;SDS011;11833;52.554;13.554;2024-03-17T03:11:08;11.38;;;2.88;;
23322;SDS011;11833;52.554;13.554;2024-03-17T03:13:38;13.38;;;2.95;;
23322;SDS011;11833;52.554;13.554;2024-03-17T03:16:09;11.13;;;2.70;;
23322;SDS011;11833;52.554;13.554;2024-03-17T03:18:37;13.68;;;2.65;;
23322;SDS011;11833;52.554;13.554;2024-03-17T03:21:06;14.13;;;2.55;;
23322;SDS011;11833;52.554;13.554;2024-03-17T03:23:32;12.33;;;2.90;;
23322;SDS011;11833;52.554;13.554;2024-03-17T03:25:59;12.95;;;2.85;;
23322;SDS011;11833;52.554;13.554;2024-03-17T03:28:29;16.63;;;2.58;;
23322;SDS011;11833;52.554;13.554;2024-03-17T03:31:01;12.27;;;2.83;;
23322;SDS011;11833;52.554;13.554;2024-03-17T03:33:27;12.57;;;2.60;;
23322;SDS011;11833;52.554;13.554;2024-03-17T03:35:53;13.68;;;2.92;;
23322;SDS011;11833;52.554;13.554;2024-03-17T03:38:20;16.95;;;2.90;;
23322;SDS011;11833;52.554;13.554;2024-03-17T03:40:47;15.80;;;3.20;;
23322;SDS011;11833;52.554;13.554;2024-03-17T03:43:15;17.98;;;3.25;;
23322;SDS011;11833;52.554;13.554;2024-03-17T03:45:41;16.13;;;2.72;;
23322;SDS011;11833;52.554;13.554;2024-03-17T03:48:07;17.60;;;2.97;;
23322;SDS011;11833;52.554;13.554;2024-03-17T03:50:34;14.47;;;3.60;;
23322;SDS011;11833;52.554;13.554;2024-03-17T03:53:00;13.32;;;3.20;;
23322;SDS011;11833;52.554;13.554;2024-03-17T03:55:26;12.57;;;3.33;;
23322;SDS011;11833;52.554;13.554;2024-03-17T03:57:51;13.67;;;3.67;;
23322;SDS011;11833;52.554;13.554;2024-03-17T04:00:20;13.17;;;3.43;;
23322;SDS011;11833;52.554;13.554;2024-03-17T04:02:50;14.07;;;2.93;;
23322;SDS011;11833;52.554;13.554;2024-03-17T04:05:17;9.95;;;2.55;;
23322;SDS011;11833;52.554;13.554;2024-03-17T04:07:45;11.32;;;3.33;;
23322;SDS011;11833;52.554;13.554;2024-03-17T04:10:12;17.17;;;3.97;;
23322;SDS011;11833;52.554;13.554;2024-03-17T04:12:39;13.82;;;2.88;;
23322;SDS011;11833;52.554;13.554;2024-03-17T04:15:05;14.52;;;3.00;;
23322;SDS011;11833;52.554;13.554;2024-03-17T04:17:31;13.13;;;2.53;;
23322;SDS011;11833;52.554;13.554;2024-03-17T04:19:58;15.95;;;2.80;;
23322;SDS011;11833;52.554;13.554;2024-03-17T04:22:24;12.68;;;2.50;;
23322;SDS011;11833;52.554;13.554;2024-03-17T04:24:50;13.52;;;3.38;;
23322;SDS011;11833;52.554;13.554;2024-03-17T04:27:19;13.88;;;2.92;;
23322;SDS011;11833;52.554;13.554;2024-03-17T04:29:52;18.83;;;3.00;;
23322;SDS011;11833;52.554;13.554;2024-03-17T04:32:19;9.70;;;2.17;;
23322;SDS011;11833;52.554;13.554;2024-03-17T04:34:46;8.63;;;2.60;;
23322;SDS011;11833;52.554;13.554;2024-03-17T04:37:12;11.88;;;2.63;;
23322;SDS011;11833;52.554;13.554;2024-03-17T04:39:39;13.65;;;2.33;;
23322;SDS011;11833;52.554;13.554;2024-03-17T04:42:11;15.33;;;3.33;;
23322;SDS011;11833;52.554;13.554;2024-03-17T04:44:39;13.27;;;3.35;;
23322;SDS011;11833;52.554;13.554;2024-03-17T04:47:05;13.77;;;2.88;;
23322;SDS011;11833;52.554;13.554;2024-03-17T04:49:38;15.27;;;2.95;;
23322;SDS011;11833;52.554;13.554;2024-03-17T04:52:06;12.60;;;2.47;;
23322;SDS011;11833;52.554;13.554;2024-03-17T04:54:32;13.60;;;2.83;;
23322;SDS011;11833;52.554;13.554;2024-03-17T04:56:59;16.58;;;3.47;;
23322;SDS011;11833;52.554;13.554;2024-03-17T04:59:25;18.30;;;3.38;;
23322;SDS011;11833;52.554;13.554;2024-03-17T05:01:51;14.23;;;3.35;;
23322;SDS011;11833;52.554;13.554;2024-03-17T05:04:18;15.48;;;2.95;;
23322;SDS011;11833;52.554;13.554;2024-03-17T05:06:44;15.98;;;3.85;;
23322;SDS011;11833;52.554;13.554;2024-03-17T05:09:12;17.35;;;3.78;;
23322;SDS011;11833;52.554;13.554;2024-03-17T05:11:38;16.75;;;3.67;;
23322;SDS011;11833;52.554;13.554;2024-03-17T05:14:05;10.77;;;2.80;;
23322;SDS011;11833;52.554;13.554;2024-03-17T05:16:31;14.23;;;3.15;;
23322;SDS011;11833;52.554;13.554;2024-03-17T05:18:57;12.60;;;3.30;;
23322;SDS011;11833;52.554;13.554;2024-03-17T05:21:22;14.70;;;2.60;;
23322;SDS011;11833;52.554;13.554;2024-03-17T05:23:49;16.38;;;3.45;;
23322;SDS011;11833;52.554;13.554;2024-03-17T05:26:14;11.25;;;3.53;;
23322;SDS011;11833;52.554;13.554;2024-03-17T05:28:40;14.70;;;3.47;;
23322;SDS011;11833;52.554;13.554;2024-03-17T05:31:06;12.23;;;3.43;;
23322;SDS011;11833;52.554;13.554;2024-03-17T05:33:31;14.75;;;3.80;;
23322;SDS011;11833;52.554;13.554;2024-03-17T05:35:58;14.52;;;3.03;;
23322;SDS011;11833;52.554;13.554;2024-03-17T05:38:27;13.97;;;3.10;;
23322;SDS011;11833;52.554;13.554;2024-03-17T05:41:01;13.25;;;4.03;;
23322;SDS011;11833;52.554;13.554;2024-03-17T05:43:29;13.95;;;3.25;;
23322;SDS011;11833;52.554;13.554;2024-03-17T05:46:05;13.95;;;3.70;;
23322;SDS011;11833;52.554;13.554;2024-03-17T05:48:37;15.65;;;2.97;;
23322;SDS011;11833;52.554;13.554;2024-03-17T05:51:08;12.27;;;2.80;;
23322;SDS011;11833;52.554;13.554;2024-03-17T05:53:36;13.02;;;2.97;;
23322;SDS011;11833;52.554;13.554;2024-03-17T05:56:09;15.88;;;4.95;;
23322;SDS011;11833;52.554;13.554;2024-03-17T05:58:38;14.57;;;3.90;;
23322;SDS011;11833;52.554;13.554;2024-03-17T06:01:04;15.07;;;3.40;;
23322;SDS011;11833;52.554;13.554;2024-03-17T06:03:34;13.07;;;2.97;;
23322;SDS011;11833;52.554;13.554;2024-03-17T06:06:03;16.98;;;3.92;;
23322;SDS011;11833;52.554;13.554;2024-03-17T06:08:32;15.00;;;3.00;;
23322;SDS011;11833;52.554;13.554;2024-03-17T06:10:58;12.60;;;2.83;;
23322;SDS011;11833;52.554;13.554;2024-03-17T06:13:25;13.25;;;3.05;;
23322;SDS011;11833;52.554;13.554;2024-03-17T06:15:54;14.40;;;3.13;;
23322;SDS011;11833;52.554;13.554;2024-03-17T06:18:20;15.30;;;3.20;;
23322;SDS011;11833;52.554;13.554;2024-03-17T06:20:46;12.75;;;3.33;;
23322;SDS011;11833;52.554;13.554;2024-03-17T06:23:13;11.73;;;3.70;;
23322;SDS011;11833;52.554;13.554;2024-03-17T06:25:41;14.45;;;3.13;;
23322;SDS011;11833;52.554;13.554;2024-03-17T06:28:12;13.93;;;2.70;;
23322;SDS011;11833;52.554;13.554;2024-03-17T06:30:43;15.82;;;2.97;;
23322;SDS011;11833;52.554;13.554;2024-03-17T06:33:12;15.57;;;3.30;;
23322;SDS011;11833;52.554;13.554;2024-03-17T06:35:39;14.47;;;3.13;;
23322;SDS011;11833;52.554;13.554;2024-03-17T06:38:06;12.30;;;2.73;;
23322;SDS011;11833;52.554;13.554;2024-03-17T06:40:35;15.20;;;3.50;;
23322;SDS011;11833;52.554;13.554;2024-03-17T06:43:03;12.35;;;3.13;;
23322;SDS011;11833;52.554;13.554;2024-03-17T06:45:30;15.13;;;3.30;;
23322;SDS011;11833;52.554;13.554;2024-03-17T06:47:56;13.88;;;3.30;;
23322;SDS011;11833;52.554;13.554;2024-03-17T06:50:22;13.73;;;3.67;;
23322;SDS011;11833;52.554;13.554;2024-03-17T06:52:48;15.80;;;3.53;;
23322;SDS011;11833;52.554;13.554;2024-03-17T06:55:13;12.57;;;2.78;;
23322;SDS011;11833;52.554;13.554;2024-03-17T06:57:44;14.93;;;3.20;;
23322;SDS011;11833;52.554;13.554;2024-03-17T07:00:12;14.35;;;2.80;;
23322;SDS011;11833;52.554;13.554;2024-03-17T07:02:45;9.80;;;2.53;;
23322;SDS011;11833;52.554;13.554;2024-03-17T07:05:14;9.55;;;2.50;;
23322;SDS011;11833;52.554;13.554;2024-03-17T07:07:43;11.93;;;3.50;;
23322;SDS011;11833;52.554;13.554;2024-03-17T07:10:09;14.65;;;3.60;;
23322;SDS011;11833;52.554;13.554;2024-03-17T07:12:40;10.35;;;2.53;;
23322;SDS011;11833;52.554;13.554;2024-03-17T07:15:07;16.40;;;3.33;;
23322;SDS011;11833;52.554;13.554;2024-03-17T07:17:33;11.35;;;3.03;;
23322;SDS011;11833;52.554;13.554;2024-03-17T07:19:59;13.95;;;3.33;;
23322;SDS011;11833;52.554;13.554;2024-03-17T07:22:25;10.82;;;3.22;;
23322;SDS011;11833;52.554;13.554;2024-03-17T07:24:54;17.45;;;3.67;;
23322;SDS011;11833;52.554;13.554;2024-03-17T07:27:29;16.85;;;3.25;;
23322;SDS011;11833;52.554;13.554;2024-03-17T07:29:54;10.05;;;2.75;;
23322;SDS011;11833;52.554;13.554;2024-03-17T07:32:20;15.93;;;3.17;;
23322;SDS011;11833;52.554;13.554;2024-03-17T07:34:48;11.38;;;2.70;;
23322;SDS011;11833;52.554;13.554;2024-03-17T07:37:15;14.23;;;3.22;;
23322;SDS011;11833;52.554;13.554;2024-03-17T07:39:41;12.60;;;2.53;;
23322;SDS011;11833;52.554;13.554;2024-03-17T07:42:06;10.80;;;2.70;;
23322;SDS011;11833;52.554;13.554;2024-03-17T07:44:32;14.60;;;3.08;;
23322;SDS011;11833;52.554;13.554;2024-03-17T07:47:01;14.40;;;3.20;;
23322;SDS011;11833;52.554;13.554;2024-03-17T07:49:28;14.43;;;3.10;;
23322;SDS011;11833;52.554;13.554;2024-03-17T07:51:57;9.65;;;2.40;;
23322;SDS011;11833;52.554;13.554;2024-03-17T07:54:24;11.65;;;2.65;;
23322;SDS011;11833;52.554;13.554;2024-03-17T07:56:51;13.70;;;3.20;;
23322;SDS011;11833;52.554;13.554;2024-03-17T07:59:17;11.30;;;2.58;;
23322;SDS011;11833;52.554;13.554;2024-03-17T08:01:43;10.38;;;2.40;;
23322;SDS011;11833;52.554;13.554;2024-03-17T08:04:13;10.52;;;3.17;;
23322;SDS011;11833;52.554;13.554;2024-03-17T08:06:39;11.43;;;2.60;;
23322;SDS011;11833;52.554;13.554;2024-03-17T08:09:06;9.37;;;2.70;;
23322;SDS011;11833;52.554;13.554;2024-03-17T08:11:38;9.20;;;2.87;;
23322;SDS011;11833;52.554;13.554;2024-03-17T08:14:08;12.82;;;2.45;;
23322;SDS011;11833;52.554;13.554;2024-03-17T08:16:35;9.73;;;2.28;;
23322;SDS011;11833;52.554;13.554;2024-03-17T08:19:01;12.10;;;2.30;;
23322;SDS011;11833;52.554;13.554;2024-03-17T08:21:26;11.20;;;2.40;;
23322;SDS011;11833;52.554;13.554;2024-03-17T08:23:54;8.90;;;2.25;;
23322;SDS011;11833;52.554;13.554;2024-03-17T08:26:19;9.20;;;1.60;;
23322;SDS011;11833;52.554;13.554;2024-03-17T08:28:45;9.98;;;1.98;;
23322;SDS011;11833;52.554;13.554;2024-03-17T08:31:11;11.38;;;2.38;;
23322;SDS011;11833;52.554;13.554;2024-03-17T08:33:37;10.60;;;2.72;;
23322;SDS011;11833;52.554;13.554;2024-03-17T08:36:04;10.40;;;2.50;;
23322;SDS011;11833;52.554;13.554;2024-03-17T08:38:34;8.65;;;2.10;;
23322;SDS011;11833;52.554;13.554;2024-03-17T08:41:02;7.93;;;1.90;;
23322;SDS011;11833;52.554;13.554;2024-03-17T08:43:33;12.57;;;2.20;;
23322;SDS011;11833;52.554;13.554;2024-03-17T08:46:00;10.55;;;2.22;;
23322;SDS011;11833;52.554;13.554;2024-03-17T08:48:32;7.88;;;1.80;;
23322;SDS011;11833;52.554;13.554;2024-03-17T08:50:59;9.65;;;1.92;;
23322;SDS011;11833;52.554;13.554;2024-03-17T08:53:27;9.63;;;2.30;;
23322;SDS011;11833;52.554;13.554;2024-03-17T08:55:53;8.18;;;2.70;;
23322;SDS011;11833;52.554;13.554;2024-03-17T08:58:20;7.70;;;1.73;;
23322;SDS011;11833;52.554;13.554;2024-03-17T09:00:46;7.80;;;1.80;;
23322;SDS011;11833;52.554;13.554;2024-03-17T09:03:14;9.27;;;2.30;;
23322;SDS011;11833;52.554;13.554;2024-03-17T09:05:40;7.67;;;1.67;;
23322;SDS011;11833;52.554;13.554;2024-03-17T09:08:14;7.60;;;1.77;;
23322;SDS011;11833;52.554;13.554;2024-03-17T09:10:45;9.32;;;2.10;;
23322;SDS011;11833;52.554;13.554;2024-03-17T09:13:16;10.48;;;2.00;;
23322;SDS011;11833;52.554;13.554;2024-03-17T09:15:59;8.80;;;2.30;;
23322;SDS011;11833;52.554;13.554;2024-03-17T09:18:26;7.85;;;1.88;;
23322;SDS011;11833;52.554;13.554;2024-03-17T09:23:35;8.38;;;2.17;;
23322;SDS011;11833;52.554;13.554;2024-03-17T09:26:10;9.77;;;2.33;;
23322;SDS011;11833;52.554;13.554;2024-03-17T09:28:41;10.10;;;2.35;;
23322;SDS011;11833;52.554;13.554;2024-03-17T09:31:07;8.63;;;2.00;;
23322;SDS011;11833;52.554;13.554;2024-03-17T09:33:33;7.50;;;1.77;;
23322;SDS011;11833;52.554;13.554;2024-03-17T09:36:01;8.10;;;1.90;;
23322;SDS011;11833;52.554;13.554;2024-03-17T09:38:32;10.88;;;1.90;;
23322;SDS011;11833;52.554;13.554;2024-03-17T09:40:59;7.78;;;1.88;;
23322;SDS011;11833;52.554;13.554;2024-03-17T09:43:26;5.55;;;1.95;;
23322;SDS011;11833;52.554;13.554;2024-03-17T09:46:03;6.90;;;1.67;;
23322;SDS011;11833;52.554;13.554;2024-03-17T09:48:30;6.80;;;2.10;;
23322;SDS011;11833;52.554;13.554;2024-03-17T09:51:00;9.00;;;2.00;;
23322;SDS011;11833;52.554;13.554;2024-03-17T09:53:28;9.10;;;3.05;;
23322;SDS011;11833;52.554;13.554;2024-03-17T09:58:28;7.78;;;2.08;;
23322;SDS011;11833;52.554;13.554;2024-03-17T10:00:54;6.68;;;1.75;;
23322;SDS011;11833;52.554;13.554;2024-03-17T10:03:39;5.97;;;2.00;;
23322;SDS011;11833;52.554;13.554;2024-03-17T10:06:20;7.00;;;2.17;;
23322;SDS011;11833;52.554;13.554;2024-03-17T10:08:48;7.20;;;2.17;;
23322;SDS011;11833;52.554;13.554;2024-03-17T10:11:19;10.65;;;2.50;;
23322;SDS011;11833;52.554;13.554;2024-03-17T10:13:59;10.70;;;2.55;;
23322;SDS011;11833;52.554;13.554;2024-03-17T10:16:26;10.68;;;2.45;;
23322;SDS011;11833;52.554;13.554;2024-03-17T10:21:43;7.65;;;2.72;;
23322;SDS011;11833;52.554;13.554;2024-03-17T10:24:20;8.05;;;1.70;;
23322;SDS011;11833;52.554;13.554;2024-03-17T10:26:47;6.63;;;1.37;;
23322;SDS011;11833;52.554;13.554;2024-03-17T10:31:56;7.00;;;1.98;;
23322;SDS011;11833;52.554;13.554;2024-03-17T10:34:26;7.43;;;2.08;;
23322;SDS011;11833;52.554;13.554;2024-03-17T10:37:09;11.17;;;2.00;;
23322;SDS011;11833;52.554;13.554;2024-03-17T10:39:45;9.90;;;2.10;;
23322;SDS011;11833;52.554;13.554;2024-03-17T10:42:14;6.10;;;1.90;;
23322;SDS011;11833;52.554;13.554;2024-03-17T10:44:51;10.53;;;2.57;;
23322;SDS011;11833;52.554;13.554;2024-03-17T10:47:23;7.40;;;2.47;;
23322;SDS011;11833;52.554;13.554;2024-03-17T10:49:53;6.15;;;1.55;;
23322;SDS011;11833;52.554;13.554;2024-03-17T10:52:20;6.25;;;1.45;;
23322;SDS011;11833;52.554;13.554;2024-03-17T10:54:51;6.10;;;1.83;;
23322;SDS011;11833;52.554;13.554;2024-03-17T10:59:59;6.55;;;1.45;;
23322;SDS011;11833;52.554;13.554;2024-03-17T11:02:30;5.38;;;1.60;;
23322;SDS011;11833;52.554;13.554;2024-03-17T11:05:04;5.40;;;1.58;;
23322;SDS011;11833;52.554;13.554;2024-03-17T11:07:37;6.53;;;1.92;;
23322;SDS011;11833;52.554;13.554;2024-03-17T11:10:08;5.13;;;1.73;;
23322;SDS011;11833;52.554;13.554;2024-03-17T11:17:50;5.50;;;1.35;;
23322;SDS011;11833;52.554;13.554;2024-03-17T11:20:25;4.82;;;1.67;;
23322;SDS011;11833;52.554;13.554;2024-03-17T11:22:56;5.95;;;1.80;;
23322;SDS011;11833;52.554;13.554;2024-03-17T11:38:54;7.13;;;1.70;;
23322;SDS011;11833;52.554;13.554;2024-03-17T11:49:32;6.68;;;1.58;;
23322;SDS011;11833;52.554;13.554;2024-03-17T11:52:11;5.88;;;1.25;;
23322;SDS011;11833;52.554;13.554;2024-03-17T11:54:44;8.07;;;1.40;;
23322;SDS011;11833;52.554;13.554;2024-03-17T11:57:24;6.07;;;1.50;;
23322;SDS011;11833;52.554;13.554;2024-03-17T11:59:52;6.32;;;1.40;;
23322;SDS011;11833;52.554;13.554;2024-03-17T12:02:25;4.32;;;1.30;;
23322;SDS011;11833;52.554;13.554;2024-03-17T12:05:09;3.00;;;1.05;;
23322;SDS011;11833;52.554;13.554;2024-03-17T12:07:38;6.13;;;1.50;;
23322;SDS011;11833;52.554;13.554;2024-03-17T12:10:09;6.57;;;1.98;;
23322;SDS011;11833;52.554;13.554;2024-03-17T12:12:38;6.15;;;1.80;;
23322;SDS011;11833;52.554;13.554;2024-03-17T12:15:18;5.05;;;1.80;;
23322;SDS011;11833;52.554;13.554;2024-03-17T12:17:46;5.60;;;1.67;;
23322;SDS011;11833;52.554;13.554;2024-03-17T12:20:18;5.40;;;1.30;;
23322;SDS011;11833;52.554;13.554;2024-03-17T12:22:46;4.88;;;1.23;;
23322;SDS011;11833;52.554;13.554;2024-03-17T12:25:17;4.40;;;1.30;;
23322;SDS011;11833;52.554;13.554;2024-03-17T12:27:45;3.95;;;1.17;;
23322;SDS011;11833;52.554;13.554;2024-03-17T12:30:13;4.53;;;0.90;;
23322;SDS011;11833;52.554;13.554;2024-03-17T12:32:40;6.33;;;1.10;;
23322;SDS011;11833;52.554;13.554;2024-03-17T12:35:12;5.77;;;1.20;;
23322;SDS011;11833;52.554;13.554;2024-03-17T12:37:42;3.90;;;1.20;;
23322;SDS011;11833;52.554;13.554;2024-03-17T12:40:19;4.72;;;1.30;;
23322;SDS011;11833;52.554;13.554;2024-03-17T12:42:49;4.47;;;1.17;;
23322;SDS011;11833;52.554;13.554;2024-03-17T12:45:18;2.70;;;1.00;;
23322;SDS011;11833;52.554;13.554;2024-03-17T12:47:49;4.85;;;1.13;;
23322;SDS011;11833;52.554;13.554;2024-03-17T12:50:17;5.55;;;1.00;;
23322;SDS011;11833;52.554;13.554;2024-03-17T12:53:04;3.28;;;1.08;;
23322;SDS011;11833;52.554;13.554;2024-03-17T12:55:29;4.50;;;1.10;;
23322;SDS011;11833;52.554;13.554;2024-03-17T12:58:13;4.25;;;1.15;;
23322;SDS011;11833;52.554;13.554;2024-03-17T13:01:01;4.70;;;1.25;;
23322;SDS011;11833;52.554;13.554;2024-03-17T13:03:32;4.80;;;1.13;;
23322;SDS011;11833;52.554;13.554;2024-03-17T13:06:05;4.95;;;0.98;;
23322;SDS011;11833;52.554;13.554;2024-03-17T13:08:34;4.28;;;1.10;;
23322;SDS011;11833;52.554;13.554;2024-03-17T13:11:00;3.43;;;1.00;;
23322;SDS011;11833;52.554;13.554;2024-03-17T13:13:29;6.60;;;1.40;;
23322;SDS011;11833;52.554;13.554;2024-03-17T13:15:55;4.78;;;1.40;;
23322;SDS011;11833;52.554;13.554;2024-03-17T13:18:21;5.43;;;1.63;;
23322;SDS011;11833;52.554;13.554;2024-03-17T13:20:47;5.00;;;1.27;;
23322;SDS011;11833;52.554;13.554;2024-03-17T13:23:18;4.60;;;1.10;;
23322;SDS011;11833;52.554;13.554;2024-03-17T13:25:46;5.35;;;1.42;;
23322;SDS011;11833;52.554;13.554;2024-03-17T13:28:13;5.17;;;1.53;;
23322;SDS011;11833;52.554;13.554;2024-03-17T13:30:39;4.82;;;1.45;;
23322;SDS011;11833;52.554;13.554;2024-03-17T13:33:06;3.30;;;1.10;;
23322;SDS011;11833;52.554;13.554;2024-03-17T13:35:36;4.38;;;1.25;;
23322;SDS011;11833;52.554;13.554;2024-03-17T13:38:04;4.10;;;1.00;;
23322;SDS011;11833;52.554;13.554;2024-03-17T13:40:32;3.78;;;1.02;;
23322;SDS011;11833;52.554;13.554;2024-03-17T13:43:03;3.75;;;1.20;;
23322;SDS011;11833;52.554;13.554;2024-03-17T13:45:30;3.15;;;1.30;;
23322;SDS011;11833;52.554;13.554;2024-03-17T13:48:03;5.03;;;1.10;;
23322;SDS011;11833;52.554;13.554;2024-03-17T13:50:30;4.15;;;1.20;;
23322;SDS011;11833;52.554;13.554;2024-03-17T13:52:56;4.88;;;1.13;;
23322;SDS011;11833;52.554;13.554;2024-03-17T13:55:22;5.70;;;1.20;;
23322;SDS011;11833;52.554;13.554;2024-03-17T13:57:51;2.72;;;0.95;;
23322;SDS011;11833;52.554;13.554;2024-03-17T14:00:22;5.30;;;1.42;;
23322;SDS011;11833;52.554;13.554;2024-03-17T14:02:49;3.17;;;0.97;;
23322;SDS011;11833;52.554;13.554;2024-03-17T14:05:18;4.03;;;1.27;;
23322;SDS011;11833;52.554;13.554;2024-03-17T14:07:46;4.55;;;0.93;;
23322;SDS011;11833;52.554;13.554;2024-03-17T14:10:13;5.28;;;1.30;;
23322;SDS011;11833;52.554;13.554;2024-03-17T14:12:41;3.03;;;1.08;;
23322;SDS011;11833;52.554;13.554;2024-03-17T14:15:08;2.67;;;1.02;;
23322;SDS011;11833;52.554;13.554;2024-03-17T14:17:38;2.53;;;1.15;;
23322;SDS011;11833;52.554;13.554;2024-03-17T14:20:05;5.03;;;1.30;;
23322;SDS011;11833;52.554;13.554;2024-03-17T14:22:37;3.40;;;0.90;;
23322;SDS011;11833;52.554;13.554;2024-03-17T14:25:09;3.20;;;1.10;;
23322;SDS011;11833;52.554;13.554;2024-03-17T14:27:39;2.20;;;0.80;;
23322;SDS011;11833;52.554;13.554;2024-03-17T14:30:05;3.42;;;1.10;;
23322;SDS011;11833;52.554;13.554;2024-03-17T14:32:32;3.60;;;1.13;;
23322;SDS011;11833;52.554;13.554;2024-03-17T14:34:58;3.07;;;1.00;;
23322;SDS011;11833;52.554;13.554;2024-03-17T14:37:24;3.83;;;1.10;;
23322;SDS011;11833;52.554;13.554;2024-03-17T14:39:51;4.55;;;1.23;;
23322;SDS011;11833;52.554;13.554;2024-03-17T14:42:17;2.90;;;0.80;;
23322;SDS011;11833;52.554;13.554;2024-03-17T14:44:44;3.85;;;1.00;;
23322;SDS011;11833;52.554;13.554;2024-03-17T14:47:12;6.30;;;1.20;;
23322;SDS011;11833;52.554;13.554;2024-03-17T14:49:38;4.18;;;0.82;;
23322;SDS011;11833;52.554;13.554;2024-03-17T14:52:04;2.13;;;0.80;;
23322;SDS011;11833;52.554;13.554;2024-03-17T14:54:30;3.47;;;0.80;;
23322;SDS011;11833;52.554;13.554;2024-03-17T14:56:56;2.40;;;0.70;;
23322;SDS011;11833;52.554;13.554;2024-03-17T14:59:22;4.27;;;0.80;;
23322;SDS011;11833;52.554;13.554;2024-03-17T15:01:48;3.75;;;0.77;;
23322;SDS011;11833;52.554;13.554;2024-03-17T15:04:14;4.95;;;1.30;;
23322;SDS011;11833;52.554;13.554;2024-03-17T15:06:41;2.45;;;0.85;;
23322;SDS011;11833;52.554;13.554;2024-03-17T15:09:08;3.17;;;0.90;;
23322;SDS011;11833;52.554;13.554;2024-03-17T15:11:34;3.03;;;0.87;;
23322;SDS011;11833;52.554;13.554;2024-03-17T15:14:00;2.90;;;0.98;;